KGKJ

Details ICAO KGKJ
Name PORT MEADVILLE
Region United States
Timezone America/New_York (UTC-4.0)
Plans Departing 3
Arriving 8
Stats Elevation 1,400 ft / 427 m (AMSL)
Location 41.626515° -80.214729°
Runways 1
Magnetic Variation 9.418° W
Sunrise 2018-05-22 09:56:39 UTC / 2018-05-22 05:56:39 Local
Sunset 2018-05-23 00:41:17 UTC / 2018-05-22 20:41:17 Local
Advertisement - Login to hide

Runways

ID Width Length Bearing (true) Bearing (mag) Surface Threshold Offset Overrun Length
07 75 ft / 23 m 4,994 ft / 1,522 m 61.15° 70.57° Asphalt 0 ft / 0 m 0 ft / 0 m
25 75 ft / 23 m 4,994 ft / 1,522 m 241.16° 250.58° Asphalt 0 ft / 0 m 0 ft / 0 m

Map

Weather


0- 5 10 15 20 25 30 35+ Temperature / ° C

Clouds and Precipitation
Forecast for 2018-05-22 06:00 UTC. Updated an hour ago

Ground ~20,000 ft ~40,000 ft Winds

METAR

KGKJ 220553Z AUTO 20003KT 10SM -RA BKN110 16/15 A3006 RMK AO2 LTG DSNT SE SLP173 P0004 60009 T01560150 10217 20156 56020

TAF

Not found

Frequencies

Recorded 121.42 MHz ASOS
Clearance 124.95 MHz CLNC DEL
Unicom 123.00 MHz CTAF/UNICOM
Approach 133.95 MHz YOUNGSTOWN APP/DEP
Warning: Do not use this data for real-world aviation or navigation. No guarantee of current accuracy is given.